Time;durP1;ratioP1;P1;durP2;ratioP2;P2;SDS_P1;SDS_P2;PMS_P1;PMS_P2;Temp;Humidity;BMP_temperature;BMP_pressure;BME280_temperature;BME280_humidity;BME280_pressure;Samples;Min_cycle;Max_cycle;Signal;HPM_P1;HPM_P2
2023/11/11 00:00:46;;;;;;;4.60;2.67;;;4.40;99.90;;;;;;5126678;28;20234;-53
2023/11/11 00:03:12;;;;;;;7.43;3.38;;;4.40;99.90;;;;;;5125662;28;20085;-52
2023/11/11 00:05:37;;;;;;;5.22;2.83;;;4.40;99.90;;;;;;5126366;28;20099;-52
2023/11/11 00:08:03;;;;;;;6.50;3.53;;;4.40;99.90;;;;;;5126267;28;20062;-53
2023/11/11 00:10:29;;;;;;;6.28;3.20;;;4.40;99.90;;;;;;5125477;28;20078;-53
2023/11/11 00:12:55;;;;;;;7.18;3.30;;;4.40;99.90;;;;;;5126449;28;20043;-53
2023/11/11 00:15:20;;;;;;;7.13;3.85;;;4.40;99.90;;;;;;5125865;28;20027;-53
2023/11/11 00:17:46;;;;;;;5.97;3.30;;;4.40;99.90;;;;;;5126312;28;20027;-54
2023/11/11 00:20:12;;;;;;;5.97;3.65;;;4.30;99.90;;;;;;5126145;28;20035;-53
2023/11/11 00:22:44;;;;;;;7.78;3.45;;;4.30;99.90;;;;;;5125350;28;20015;-53
2023/11/11 00:25:17;;;;;;;7.03;3.67;;;4.30;99.90;;;;;;5126272;28;20032;-53
2023/11/11 00:27:44;;;;;;;7.60;3.25;;;4.30;99.90;;;;;;5126122;28;20031;-54
2023/11/11 00:30:11;;;;;;;7.15;3.28;;;4.20;99.90;;;;;;5125781;28;20024;-52
2023/11/11 00:32:36;;;;;;;5.60;3.10;;;4.20;99.90;;;;;;5126110;28;20197;-49
2023/11/11 00:35:03;;;;;;;6.10;3.05;;;4.10;99.90;;;;;;5125074;28;20016;-52
2023/11/11 00:37:29;;;;;;;5.55;3.10;;;4.20;99.90;;;;;;5124904;28;20026;-52
2023/11/11 00:39:55;;;;;;;6.25;3.50;;;4.20;99.90;;;;;;5125459;28;20095;-52
2023/11/11 00:42:21;;;;;;;4.90;2.90;;;4.30;99.90;;;;;;5126051;28;20024;-51
2023/11/11 00:44:48;;;;;;;5.20;2.67;;;4.30;99.90;;;;;;5124948;28;20069;-51
2023/11/11 00:47:16;;;;;;;5.18;2.97;;;4.30;99.90;;;;;;5126148;28;20046;-50
2023/11/11 00:49:42;;;;;;;8.98;3.20;;;4.30;99.90;;;;;;5125825;28;20155;-52
2023/11/11 00:52:08;;;;;;;6.85;3.10;;;4.30;99.90;;;;;;5126031;28;20091;-53
2023/11/11 00:54:34;;;;;;;4.35;2.70;;;4.30;99.90;;;;;;5126017;28;20308;-50
2023/11/11 00:57:00;;;;;;;5.72;2.78;;;4.40;99.90;;;;;;5125947;28;20023;-50
2023/11/11 00:59:30;;;;;;;5.57;2.78;;;4.40;99.90;;;;;;5124998;28;20019;-51
2023/11/11 01:01:59;;;;;;;7.60;3.17;;;4.50;99.90;;;;;;5125751;28;20065;-52
2023/11/11 01:04:25;;;;;;;6.32;2.50;;;4.50;99.90;;;;;;5125908;28;20076;-51
2023/11/11 01:06:51;;;;;;;4.75;2.40;;;4.40;99.90;;;;;;5125630;28;20115;-52
2023/11/11 01:09:17;;;;;;;6.55;2.42;;;4.50;99.90;;;;;;5125529;28;20032;-52
2023/11/11 01:11:43;;;;;;;6.35;2.40;;;4.50;99.90;;;;;;5125805;28;20034;-52
2023/11/11 01:14:09;;;;;;;5.63;2.65;;;4.50;99.90;;;;;;5125637;28;20055;-55
2023/11/11 01:16:34;;;;;;;7.55;2.50;;;4.40;99.90;;;;;;5124564;28;20046;-52
2023/11/11 01:19:00;;;;;;;7.28;3.70;;;4.30;99.90;;;;;;5125822;28;20023;-51
2023/11/11 01:21:26;;;;;;;7.78;3.10;;;4.10;99.90;;;;;;5125769;28;20020;-52
2023/11/11 01:23:52;;;;;;;8.95;3.72;;;4.00;99.90;;;;;;5124555;28;20031;-52
2023/11/11 01:26:19;;;;;;;6.97;3.58;;;4.00;99.90;;;;;;5124588;28;20043;-52
2023/11/11 01:28:45;;;;;;;8.70;3.38;;;3.90;99.90;;;;;;5125758;28;20281;-52
2023/11/11 01:31:10;;;;;;;7.47;4.13;;;3.90;99.90;;;;;;5125685;28;20059;-52
2023/11/11 01:33:36;;;;;;;7.57;4.30;;;3.90;99.90;;;;;;5124542;28;20020;-53
2023/11/11 01:36:04;;;;;;;7.60;3.88;;;4.00;99.90;;;;;;5125591;28;20031;-52
2023/11/11 01:38:30;;;;;;;9.07;4.43;;;3.90;99.90;;;;;;5125552;28;20038;-51
2023/11/11 01:40:56;;;;;;;7.20;3.83;;;3.90;99.90;;;;;;5124629;28;20015;-51
2023/11/11 01:43:23;;;;;;;15.30;4.55;;;3.90;99.90;;;;;;5124380;28;20050;-49
2023/11/11 01:45:49;;;;;;;8.30;4.55;;;3.90;99.90;;;;;;5125364;28;20051;-52
2023/11/11 01:48:15;;;;;;;8.10;3.95;;;4.00;99.90;;;;;;5124295;28;20035;-54
2023/11/11 01:50:42;;;;;;;8.38;4.20;;;4.10;99.90;;;;;;5124695;28;20221;-53
2023/11/11 01:53:08;;;;;;;8.85;4.25;;;4.20;99.90;;;;;;5128923;28;20036;-52
2023/11/11 01:55:34;;;;;;;6.90;3.65;;;4.40;99.90;;;;;;5094225;28;20062;-52
2023/11/11 01:58:00;;;;;;;9.85;4.05;;;4.30;99.90;;;;;;5128299;28;20023;-52
2023/11/11 02:00:26;;;;;;;9.13;4.25;;;4.40;99.90;;;;;;5111115;28;20076;-51
2023/11/11 02:02:53;;;;;;;9.88;4.18;;;4.40;99.90;;;;;;5128982;28;20035;-54
2023/11/11 02:05:19;;;;;;;8.20;4.40;;;4.40;99.90;;;;;;5128560;28;20043;-53
2023/11/11 02:07:46;;;;;;;8.60;3.42;;;4.40;99.90;;;;;;5128542;28;20087;-48
2023/11/11 02:10:13;;;;;;;9.00;3.40;;;4.40;99.90;;;;;;5128765;28;20081;-53
2023/11/11 02:12:39;;;;;;;7.60;3.22;;;4.60;99.90;;;;;;5128788;28;20274;-49
2023/11/11 02:15:05;;;;;;;7.15;3.00;;;4.60;99.90;;;;;;5128823;28;20133;-52
2023/11/11 02:17:31;;;;;;;8.40;3.30;;;4.70;99.90;;;;;;5128637;28;20026;-49
2023/11/11 02:19:58;;;;;;;5.47;3.25;;;4.70;99.90;;;;;;5128509;28;20028;-48
2023/11/11 02:22:25;;;;;;;7.70;3.15;;;4.70;99.90;;;;;;5127447;28;20036;-52
2023/11/11 02:24:50;;;;;;;5.85;2.55;;;4.70;99.90;;;;;;5128687;28;20067;-49
2023/11/11 02:27:16;;;;;;;5.35;2.80;;;4.70;99.90;;;;;;5127585;28;20189;-51
2023/11/11 02:29:45;;;;;;;4.45;2.47;;;4.70;99.90;;;;;;5128427;28;20031;-50
2023/11/11 02:32:11;;;;;;;9.20;2.60;;;4.70;99.90;;;;;;5128350;28;20031;-52
2023/11/11 02:34:36;;;;;;;4.68;1.90;;;4.70;99.90;;;;;;5127498;28;20239;-51
2023/11/11 02:37:02;;;;;;;5.75;2.30;;;4.70;99.90;;;;;;5127280;28;20027;-50
2023/11/11 02:39:28;;;;;;;6.05;2.20;;;4.70;99.90;;;;;;5128263;28;20023;-53
2023/11/11 02:41:54;;;;;;;5.63;2.10;;;4.80;99.90;;;;;;5128223;28;20054;-51
2023/11/11 02:44:20;;;;;;;7.32;2.17;;;4.80;99.90;;;;;;5128103;28;20249;-50
2023/11/11 02:46:45;;;;;;;3.47;1.75;;;4.80;99.90;;;;;;5128233;28;20082;-51
2023/11/11 02:49:11;;;;;;;7.75;1.70;;;4.70;99.90;;;;;;5128636;28;20039;-51
2023/11/11 02:51:37;;;;;;;4.60;1.80;;;4.70;99.90;;;;;;5128039;28;20031;-54
2023/11/11 02:54:02;;;;;;;4.82;2.00;;;4.80;99.90;;;;;;5127950;28;20027;-54
2023/11/11 02:56:28;;;;;;;7.65;2.97;;;4.80;99.90;;;;;;5127098;28;20143;-54
2023/11/11 02:58:54;;;;;;;9.10;2.90;;;4.80;99.90;;;;;;5127986;28;20047;-53
2023/11/11 03:01:20;;;;;;;3.53;2.10;;;4.70;99.90;;;;;;5127516;28;20023;-51
2023/11/11 03:03:46;;;;;;;3.17;2.05;;;4.60;99.90;;;;;;5126933;28;20111;-53
2023/11/11 03:06:12;;;;;;;5.60;2.00;;;4.60;99.90;;;;;;5127587;28;20289;-53
2023/11/11 03:08:38;;;;;;;3.50;1.70;;;4.60;99.90;;;;;;5127722;28;20181;-52
2023/11/11 03:11:04;;;;;;;4.50;2.08;;;4.60;99.90;;;;;;5126591;28;20031;-53
2023/11/11 03:13:30;;;;;;;5.90;1.70;;;4.60;99.90;;;;;;5127460;28;20036;-53
2023/11/11 03:15:56;;;;;;;4.97;1.80;;;4.60;99.90;;;;;;5126772;28;20030;-53
2023/11/11 03:18:23;;;;;;;4.53;2.00;;;4.70;99.90;;;;;;5127345;28;20044;-53
2023/11/11 03:20:49;;;;;;;7.15;2.05;;;4.70;99.90;;;;;;5127510;28;20031;-53
2023/11/11 03:23:15;;;;;;;3.03;1.73;;;4.70;99.90;;;;;;5126361;28;20281;-53
2023/11/11 03:25:40;;;;;;;6.75;2.20;;;4.70;99.90;;;;;;5127354;28;20230;-52
2023/11/11 03:28:06;;;;;;;5.80;2.00;;;4.70;99.90;;;;;;5126419;28;20039;-53
2023/11/11 03:30:32;;;;;;;5.20;2.08;;;4.80;99.90;;;;;;5127218;28;20170;-52
2023/11/11 03:32:57;;;;;;;4.90;1.83;;;4.70;99.90;;;;;;5126031;28;20039;-53
2023/11/11 03:35:23;;;;;;;3.28;1.77;;;4.70;99.90;;;;;;5126885;28;20090;-53
2023/11/11 03:37:48;;;;;;;6.88;1.85;;;4.70;99.90;;;;;;5127139;28;20016;-53
2023/11/11 03:40:14;;;;;;;5.57;1.92;;;4.70;99.90;;;;;;5126792;28;20197;-54
2023/11/11 03:42:40;;;;;;;6.63;2.22;;;4.70;99.90;;;;;;5126614;28;20091;-52
2023/11/11 03:45:09;;;;;;;6.63;1.95;;;4.60;99.90;;;;;;5127077;28;20027;-53
2023/11/11 03:47:38;;;;;;;4.85;2.22;;;4.60;99.90;;;;;;5127163;28;20181;-53
2023/11/11 03:50:04;;;;;;;6.38;1.80;;;4.70;99.90;;;;;;5126755;28;20140;-52
2023/11/11 03:52:30;;;;;;;5.57;1.88;;;4.70;99.90;;;;;;5126729;28;20073;-53
2023/11/11 03:54:56;;;;;;;3.25;1.52;;;4.70;99.90;;;;;;5126844;28;20035;-52
2023/11/11 03:57:22;;;;;;;5.53;1.80;;;4.60;99.90;;;;;;5126701;28;20024;-53
2023/11/11 03:59:48;;;;;;;4.90;1.83;;;4.60;99.90;;;;;;5125725;28;20100;-53
2023/11/11 04:02:13;;;;;;;3.67;1.67;;;4.70;99.90;;;;;;5126600;28;20024;-53
2023/11/11 04:04:39;;;;;;;3.53;1.83;;;4.60;99.90;;;;;;5126776;28;20028;-53
2023/11/11 04:07:05;;;;;;;4.30;1.67;;;4.60;99.90;;;;;;5126703;28;20063;-53
2023/11/11 04:09:33;;;;;;;4.18;1.90;;;4.60;99.90;;;;;;5126489;28;20035;-53
2023/11/11 04:12:00;;;;;;;3.47;1.80;;;4.60;99.90;;;;;;5126548;28;20315;-53
2023/11/11 04:14:26;;;;;;;4.72;1.75;;;4.60;99.90;;;;;;5125511;28;20019;-53
2023/11/11 04:16:53;;;;;;;4.28;2.00;;;4.60;99.90;;;;;;5125113;28;20181;-53
2023/11/11 04:19:19;;;;;;;4.60;2.17;;;4.50;99.90;;;;;;5126127;28;20035;-53
2023/11/11 04:21:50;;;;;;;4.32;1.98;;;4.40;99.90;;;;;;5126712;28;20188;-53
2023/11/11 04:24:17;;;;;;;5.35;2.72;;;4.40;99.90;;;;;;5126379;28;20031;-54
2023/11/11 04:26:46;;;;;;;7.28;2.30;;;4.30;99.90;;;;;;5126446;28;20088;-52
2023/11/11 04:29:11;;;;;;;6.43;2.10;;;4.40;99.90;;;;;;5126301;28;20062;-52
2023/11/11 04:31:37;;;;;;;6.50;2.22;;;4.40;99.90;;;;;;5125327;28;20027;-52
2023/11/11 04:34:03;;;;;;;6.55;2.95;;;4.40;99.90;;;;;;5126214;28;20035;-53
2023/11/11 04:36:29;;;;;;;4.78;2.10;;;4.50;99.90;;;;;;5126163;28;20050;-52
2023/11/11 04:38:55;;;;;;;4.28;2.08;;;4.60;99.90;;;;;;5125278;28;20088;-53
2023/11/11 04:41:21;;;;;;;5.25;2.40;;;4.60;99.90;;;;;;5126524;28;20032;-54
2023/11/11 04:43:46;;;;;;;6.35;2.10;;;4.80;99.90;;;;;;5124834;28;20296;-54
2023/11/11 04:46:14;;;;;;;5.30;2.25;;;4.80;99.90;;;;;;5125096;28;20156;-53
2023/11/11 04:48:42;;;;;;;5.28;2.00;;;4.80;99.90;;;;;;5125689;28;20039;-54
2023/11/11 04:51:08;;;;;;;7.45;2.38;;;4.80;99.90;;;;;;5126128;28;20020;-52
2023/11/11 04:53:34;;;;;;;4.93;2.08;;;4.80;99.90;;;;;;5125731;28;20027;-49
2023/11/11 04:56:00;;;;;;;7.22;2.30;;;4.80;99.90;;;;;;5126207;28;20193;-55
2023/11/11 04:58:26;;;;;;;5.00;1.98;;;4.80;99.90;;;;;;5125028;28;20080;-55
2023/11/11 05:00:52;;;;;;;6.07;2.10;;;4.80;99.90;;;;;;5124999;28;20063;-52
2023/11/11 05:03:19;;;;;;;3.90;1.88;;;4.80;99.90;;;;;;5125605;28;20059;-52
2023/11/11 05:05:45;;;;;;;4.35;2.10;;;4.80;99.90;;;;;;5124728;28;20026;-53
2023/11/11 05:08:11;;;;;;;7.22;1.92;;;4.70;99.90;;;;;;5124734;28;20055;-53
2023/11/11 05:10:36;;;;;;;7.22;2.20;;;4.70;99.90;;;;;;5125875;28;20098;-53
2023/11/11 05:13:08;;;;;;;4.93;2.40;;;4.60;99.90;;;;;;5124741;28;20023;-52
2023/11/11 05:15:45;;;;;;;6.07;2.00;;;4.70;99.90;;;;;;5125395;28;20063;-52
2023/11/11 05:18:11;;;;;;;6.18;2.20;;;4.70;99.90;;;;;;5125728;28;20035;-50
2023/11/11 05:20:39;;;;;;;3.90;2.00;;;4.60;99.90;;;;;;5125366;28;20079;-52
2023/11/11 05:23:06;;;;;;;5.85;2.03;;;4.60;99.90;;;;;;5125769;28;20091;-52
2023/11/11 05:25:32;;;;;;;6.05;2.40;;;4.60;99.90;;;;;;5125665;28;20312;-52
2023/11/11 05:27:59;;;;;;;4.28;2.72;;;4.50;99.90;;;;;;5129156;28;20068;-51
2023/11/11 05:30:25;;;;;;;7.65;2.50;;;4.50;99.90;;;;;;5128594;28;20027;-52
2023/11/11 05:32:52;;;;;;;5.78;2.40;;;4.50;99.90;;;;;;5129572;28;20153;-51
2023/11/11 05:35:19;;;;;;;4.28;2.00;;;4.60;99.90;;;;;;5129172;28;20047;-51
2023/11/11 05:37:44;;;;;;;7.47;2.20;;;4.60;99.90;;;;;;5129208;28;20065;-57
2023/11/11 05:40:16;;;;;;;6.85;2.40;;;4.60;99.90;;;;;;5129501;28;20166;-52
2023/11/11 05:42:42;;;;;;;3.30;2.10;;;4.60;99.90;;;;;;5129413;28;20265;-52
2023/11/11 05:45:10;;;;;;;5.82;1.90;;;4.60;99.90;;;;;;5129333;28;20024;-50
2023/11/11 05:47:35;;;;;;;4.38;1.80;;;4.70;99.90;;;;;;5129048;28;20057;-52
2023/11/11 05:50:01;;;;;;;5.47;2.15;;;4.70;99.90;;;;;;5129027;28;20086;-52
2023/11/11 05:52:27;;;;;;;4.28;2.05;;;4.70;99.90;;;;;;5129199;28;20027;-51
2023/11/11 05:54:54;;;;;;;3.80;1.90;;;4.70;99.90;;;;;;5129109;28;20047;-54
2023/11/11 05:57:20;;;;;;;3.65;1.85;;;4.70;99.90;;;;;;5128787;28;20266;-53
2023/11/11 05:59:45;;;;;;;3.45;2.10;;;4.60;99.90;;;;;;5129153;28;20034;-51
2023/11/11 06:02:13;;;;;;;2.63;1.80;;;4.70;99.90;;;;;;5127910;28;20082;-52
2023/11/11 06:04:39;;;;;;;5.72;2.35;;;4.60;99.90;;;;;;5129053;28;20027;-52
2023/11/11 06:07:06;;;;;;;4.70;2.60;;;4.40;99.90;;;;;;5128534;28;20048;-49
2023/11/11 06:09:34;;;;;;;4.32;2.22;;;4.40;99.90;;;;;;5128644;28;20222;-52
2023/11/11 06:12:01;;;;;;;5.78;2.58;;;4.30;99.90;;;;;;5127665;28;20036;-52
2023/11/11 06:14:26;;;;;;;5.13;2.60;;;4.30;99.90;;;;;;5128615;28;20019;-53
2023/11/11 06:16:52;;;;;;;5.57;2.15;;;4.30;99.90;;;;;;5128754;28;20095;-53
2023/11/11 06:19:19;;;;;;;4.05;1.80;;;4.40;99.90;;;;;;5128171;28;20039;-53
2023/11/11 06:21:46;;;;;;;4.40;2.13;;;4.40;99.90;;;;;;5127506;28;20020;-51
2023/11/11 06:24:12;;;;;;;4.97;1.85;;;4.40;99.90;;;;;;5127529;28;20031;-51
2023/11/11 06:26:38;;;;;;;3.65;2.45;;;4.40;99.90;;;;;;5128479;28;20031;-53
2023/11/11 06:29:06;;;;;;;6.22;2.05;;;4.30;99.90;;;;;;5127350;28;20028;-53
2023/11/11 06:31:32;;;;;;;4.28;2.20;;;4.30;99.90;;;;;;5128361;28;20019;-52
2023/11/11 06:34:01;;;;;;;4.55;1.88;;;4.30;99.90;;;;;;5127198;28;20055;-53
2023/11/11 06:36:26;;;;;;;6.60;2.58;;;4.40;99.90;;;;;;5128274;28;20016;-53
2023/11/11 06:38:52;;;;;;;3.28;1.77;;;4.40;99.90;;;;;;5126724;28;20070;-53
2023/11/11 06:41:19;;;;;;;3.13;1.83;;;4.40;99.90;;;;;;5127369;28;20032;-52
2023/11/11 06:43:45;;;;;;;7.88;2.08;;;4.30;99.90;;;;;;5126868;28;20032;-53
2023/11/11 06:46:12;;;;;;;4.55;1.80;;;4.30;99.90;;;;;;5127959;28;20184;-49
2023/11/11 06:48:38;;;;;;;2.72;1.73;;;4.30;99.90;;;;;;5128620;28;20170;-52
2023/11/11 06:51:04;;;;;;;4.35;2.20;;;4.30;99.90;;;;;;5127903;28;20023;-53
2023/11/11 06:53:29;;;;;;;4.15;1.63;;;4.20;99.90;;;;;;5128083;28;20228;-52
2023/11/11 06:55:55;;;;;;;3.33;1.40;;;4.20;99.90;;;;;;5127886;28;20027;-51
2023/11/11 06:58:21;;;;;;;3.72;1.40;;;4.20;99.90;;;;;;5127946;28;20020;-51
2023/11/11 07:00:46;;;;;;;2.28;1.30;;;4.00;99.90;;;;;;5126819;28;20050;-52
2023/11/11 07:03:12;;;;;;;3.58;1.60;;;3.90;99.90;;;;;;5127910;28;20263;-52
2023/11/11 07:05:38;;;;;;;3.63;1.50;;;3.90;99.90;;;;;;5127714;28;20043;-49
2023/11/11 07:08:05;;;;;;;4.63;1.58;;;3.90;99.90;;;;;;5127474;28;20269;-49
2023/11/11 07:10:33;;;;;;;2.50;1.73;;;4.00;99.90;;;;;;5127197;28;20027;-48
2023/11/11 07:13:00;;;;;;;4.43;1.88;;;4.00;99.90;;;;;;5126380;28;20026;-49
2023/11/11 07:15:26;;;;;;;3.70;1.45;;;4.00;99.90;;;;;;5127461;28;20153;-52
2023/11/11 07:17:53;;;;;;;4.55;1.75;;;4.00;99.90;;;;;;5126607;28;20176;-52
2023/11/11 07:20:21;;;;;;;4.20;1.48;;;3.90;99.90;;;;;;5127510;28;20273;-53
2023/11/11 07:22:50;;;;;;;4.32;2.22;;;3.90;99.90;;;;;;5127375;28;20031;-54
2023/11/11 07:25:16;;;;;;;3.83;2.10;;;3.90;99.90;;;;;;5127540;28;20027;-54
2023/11/11 07:27:42;;;;;;;5.93;2.60;;;4.00;99.90;;;;;;5127326;28;20274;-54
2023/11/11 07:30:10;;;;;;;5.03;2.30;;;4.00;99.90;;;;;;5127237;28;20035;-54
2023/11/11 07:32:43;;;;;;;5.53;2.30;;;3.90;99.90;;;;;;5127147;28;20277;-51
2023/11/11 07:35:11;;;;;;;3.63;2.10;;;3.90;99.90;;;;;;5127366;28;20019;-54
2023/11/11 07:37:38;;;;;;;5.57;1.70;;;3.90;99.90;;;;;;5127051;28;20265;-54
2023/11/11 07:40:05;;;;;;;3.95;1.70;;;3.80;99.90;;;;;;5126784;28;20020;-54
2023/11/11 07:42:30;;;;;;;5.05;2.08;;;3.90;99.90;;;;;;5126725;28;20048;-54
2023/11/11 07:44:58;;;;;;;8.30;2.33;;;3.90;99.90;;;;;;5126419;28;20039;-55
2023/11/11 07:47:24;;;;;;;6.28;2.80;;;4.00;99.90;;;;;;5126651;28;20015;-54
2023/11/11 07:49:50;;;;;;;5.65;2.40;;;4.00;99.90;;;;;;5126629;28;20206;-53
2023/11/11 07:52:16;;;;;;;4.75;2.80;;;4.00;99.90;;;;;;5126781;28;20031;-52
2023/11/11 07:54:41;;;;;;;4.60;2.42;;;4.00;99.90;;;;;;5126441;28;20087;-54
2023/11/11 07:57:07;;;;;;;4.47;2.20;;;3.90;99.90;;;;;;5126981;28;20193;-52
2023/11/11 07:59:36;;;;;;;4.88;2.00;;;4.00;99.90;;;;;;5126863;28;20039;-53
2023/11/11 08:02:02;;;;;;;5.57;2.67;;;4.00;99.90;;;;;;5126586;28;20027;-55
2023/11/11 08:04:28;;;;;;;7.05;2.20;;;3.90;99.90;;;;;;5126716;28;20386;-54
2023/11/11 08:06:53;;;;;;;5.32;1.83;;;3.90;99.90;;;;;;5126417;28;20062;-54
2023/11/11 08:09:20;;;;;;;4.53;2.00;;;3.90;99.90;;;;;;5126267;28;20054;-53
2023/11/11 08:11:46;;;;;;;4.18;1.88;;;4.00;99.90;;;;;;5125340;28;20020;-54
2023/11/11 08:14:12;;;;;;;4.65;1.85;;;4.10;99.90;;;;;;5125993;28;20109;-54
2023/11/11 08:16:38;;;;;;;8.70;3.80;;;4.10;99.90;;;;;;5125325;28;20027;-54
2023/11/11 08:19:04;;;;;;;4.35;2.45;;;4.20;99.90;;;;;;5126472;28;20030;-51
2023/11/11 08:21:32;;;;;;;7.38;3.20;;;4.20;99.90;;;;;;5126369;28;20023;-49
2023/11/11 08:24:05;;;;;;;6.80;3.03;;;4.30;99.90;;;;;;5126193;28;20031;-54
2023/11/11 08:26:31;;;;;;;8.65;2.70;;;4.50;99.90;;;;;;5126278;28;20096;-50
2023/11/11 08:28:58;;;;;;;7.70;2.15;;;4.70;99.90;;;;;;5108214;28;20289;-49
2023/11/11 08:31:24;;;;;;;8.95;3.15;;;4.70;99.90;;;;;;5126223;28;20027;-52
2023/11/11 08:33:50;;;;;;;10.45;2.95;;;4.80;99.90;;;;;;5126178;28;20115;-51
2023/11/11 08:36:17;;;;;;;10.52;4.85;;;4.90;99.90;;;;;;5126024;28;20024;-52
2023/11/11 08:38:43;;;;;;;6.35;3.35;;;5.00;99.90;;;;;;5126066;28;20019;-51
2023/11/11 08:41:09;;;;;;;7.43;3.03;;;5.10;99.90;;;;;;5126123;28;20141;-54
2023/11/11 08:43:35;;;;;;;8.23;2.97;;;5.10;99.90;;;;;;5126085;28;20212;-54
2023/11/11 08:46:01;;;;;;;6.63;2.90;;;5.20;99.90;;;;;;5126081;28;20180;-53
2023/11/11 08:48:30;;;;;;;5.72;2.45;;;5.30;99.90;;;;;;5125803;28;20291;-53
2023/11/11 08:50:56;;;;;;;219.18;109.43;;;5.30;99.90;;;;;;5125863;28;20148;-54
2023/11/11 08:53:22;;;;;;;101.57;53.75;;;5.40;99.90;;;;;;5125337;28;20031;-54
2023/11/11 08:55:48;;;;;;;48.75;28.73;;;5.40;99.90;;;;;;5125594;28;20039;-54
2023/11/11 08:58:14;;;;;;;33.63;17.10;;;5.40;99.90;;;;;;5125802;28;20020;-53
2023/11/11 09:00:40;;;;;;;14.45;8.52;;;5.40;99.90;;;;;;5125962;28;20185;-54
2023/11/11 09:03:06;;;;;;;15.68;8.35;;;5.40;99.90;;;;;;5129217;28;20027;-52
2023/11/11 09:05:32;;;;;;;13.43;7.55;;;5.40;99.90;;;;;;5129704;28;20019;-53
2023/11/11 09:07:58;;;;;;;14.55;9.00;;;5.50;99.90;;;;;;5128654;28;20356;-55
2023/11/11 09:10:26;;;;;;;17.60;9.50;;;5.60;99.90;;;;;;5129775;28;20077;-53
2023/11/11 09:12:52;;;;;;;16.48;9.43;;;5.80;99.90;;;;;;5129821;28;20077;-49
2023/11/11 09:15:18;;;;;;;13.45;6.95;;;5.90;99.90;;;;;;5128130;28;20024;-54
2023/11/11 09:17:44;;;;;;;11.95;6.95;;;6.00;99.90;;;;;;5129770;28;20055;-53
2023/11/11 09:20:10;;;;;;;12.95;7.40;;;6.10;99.90;;;;;;5129048;28;20011;-54
2023/11/11 09:22:40;;;;;;;17.15;8.82;;;6.20;99.90;;;;;;5128567;28;20177;-54
2023/11/11 09:25:06;;;;;;;10.80;6.90;;;6.30;99.90;;;;;;5129626;28;20143;-53
2023/11/11 09:27:32;;;;;;;11.38;7.25;;;6.40;99.90;;;;;;5129223;28;20235;-54
2023/11/11 09:29:58;;;;;;;18.38;6.63;;;6.60;99.90;;;;;;5129289;28;20065;-53
2023/11/11 09:32:24;;;;;;;15.45;7.05;;;6.70;99.90;;;;;;5129378;28;20031;-52
2023/11/11 09:34:50;;;;;;;13.60;6.75;;;6.70;99.90;;;;;;5129256;28;20023;-52
2023/11/11 09:37:15;;;;;;;12.55;6.13;;;6.80;99.90;;;;;;5129369;28;20076;-54
2023/11/11 09:39:41;;;;;;;9.60;6.35;;;6.90;99.90;;;;;;5129265;28;20175;-54
2023/11/11 09:42:07;;;;;;;9.13;5.78;;;6.80;99.90;;;;;;5129264;28;20020;-53
2023/11/11 09:44:33;;;;;;;13.23;5.65;;;6.80;99.90;;;;;;5129352;28;20188;-55
2023/11/11 09:46:59;;;;;;;9.10;4.78;;;6.80;99.90;;;;;;5128882;28;20055;-54
2023/11/11 09:49:27;;;;;;;7.97;4.28;;;6.90;99.90;;;;;;5128692;28;20031;-53
2023/11/11 09:51:53;;;;;;;10.02;4.90;;;6.90;99.90;;;;;;5128161;28;20024;-50
2023/11/11 09:54:19;;;;;;;11.40;4.68;;;7.00;99.90;;;;;;5127936;28;20032;-52
2023/11/11 09:56:45;;;;;;;8.90;4.63;;;7.00;99.90;;;;;;5128023;28;20166;-53
2023/11/11 09:59:11;;;;;;;15.07;6.05;;;7.20;99.90;;;;;;5129061;28;20061;-54
2023/11/11 10:01:41;;;;;;;10.20;4.57;;;7.30;99.90;;;;;;5127751;28;20090;-54
2023/11/11 10:04:07;;;;;;;;;;;7.30;99.90;;;;;;5128837;28;20023;-53
2023/11/11 10:06:33;;;;;;;12.10;5.60;;;7.30;99.90;;;;;;5128398;28;20069;-53
2023/11/11 10:09:00;;;;;;;12.88;6.82;;;7.40;99.90;;;;;;5128922;28;20034;-53
2023/11/11 10:11:25;;;;;;;15.40;6.93;;;7.50;99.90;;;;;;5128115;28;20091;-53
2023/11/11 10:13:54;;;;;;;22.05;7.85;;;7.60;99.90;;;;;;5128547;28;20031;-53
2023/11/11 10:16:22;;;;;;;13.60;6.40;;;7.70;99.90;;;;;;5128565;28;20149;-54
2023/11/11 10:18:57;;;;;;;13.00;5.15;;;7.70;99.90;;;;;;5127579;28;20023;-54
2023/11/11 10:21:22;;;;;;;20.90;9.35;;;7.80;99.90;;;;;;5127164;28;20024;-54
2023/11/11 10:23:48;;;;;;;20.50;9.05;;;7.90;99.90;;;;;;5110237;28;20084;-50
2023/11/11 10:26:16;;;;;;;21.88;8.40;;;8.10;99.90;;;;;;5127400;28;20189;-54
2023/11/11 10:28:41;;;;;;;13.45;6.15;;;8.20;99.90;;;;;;5128422;28;20078;-53
2023/11/11 10:31:10;;;;;;;11.80;6.78;;;8.30;99.90;;;;;;5128760;28;20039;-54
2023/11/11 10:33:37;;;;;;;11.85;5.68;;;8.40;99.90;;;;;;5127072;28;20020;-53
2023/11/11 10:36:03;;;;;;;11.88;5.70;;;8.50;99.90;;;;;;5128031;28;20035;-53
2023/11/11 10:38:30;;;;;;;20.25;10.10;;;8.60;99.90;;;;;;5127957;28;20011;-54
2023/11/11 10:40:56;;;;;;;18.92;10.18;;;8.60;99.90;;;;;;5128052;28;20062;-53
2023/11/11 10:43:25;;;;;;;14.68;6.95;;;8.70;99.90;;;;;;5126744;28;20200;-54
2023/11/11 10:45:50;;;;;;;23.88;9.73;;;8.90;99.90;;;;;;5127441;28;20270;-54
2023/11/11 10:48:16;;;;;;;10.48;3.83;;;9.10;99.90;;;;;;5110096;28;20031;-54
2023/11/11 10:50:44;;;;;;;8.75;4.55;;;9.30;99.90;;;;;;5126705;28;20085;-54
2023/11/11 10:53:09;;;;;;;9.13;5.65;;;9.40;99.90;;;;;;5109826;28;20072;-53
2023/11/11 10:55:35;;;;;;;14.50;9.93;;;9.60;99.90;;;;;;5126910;28;20031;-54
2023/11/11 10:58:01;;;;;;;11.25;5.78;;;9.90;99.90;;;;;;5126720;28;20059;-54
2023/11/11 11:00:26;;;;;;;12.20;8.20;;;10.10;99.90;;;;;;5109248;28;20039;-53
2023/11/11 11:02:54;;;;;;;8.77;3.67;;;10.10;99.90;;;;;;5126598;28;20032;-54
2023/11/11 11:05:46;;;;;;;6.95;2.20;;;10.00;99.90;;;;;;5109451;28;20023;-53
2023/11/11 11:08:31;;;;;;;8.05;3.00;;;9.90;99.90;;;;;;5127189;28;20066;-53
2023/11/11 11:11:35;;;;;;;6.35;2.20;;;9.90;99.90;;;;;;5126183;28;20028;-54
2023/11/11 11:14:12;;;;;;;5.78;2.00;;;10.00;99.90;;;;;;5121966;28;20103;-53
2023/11/11 11:16:41;;;;;;;7.93;2.10;;;10.10;99.90;;;;;;5126410;28;20340;-54
2023/11/11 11:19:14;;;;;;;7.03;2.20;;;10.30;99.90;;;;;;5126206;28;20027;-54
2023/11/11 11:21:41;;;;;;;8.13;2.05;;;10.40;99.90;;;;;;5126984;28;20073;-53
2023/11/11 11:24:14;;;;;;;4.47;2.53;;;10.60;99.90;;;;;;5126507;28;20038;-54
2023/11/11 11:26:39;;;;;;;9.85;4.22;;;10.90;99.90;;;;;;5127163;28;20080;-54
2023/11/11 11:29:12;;;;;;;6.43;2.50;;;11.00;99.90;;;;;;5125915;28;20063;-54
2023/11/11 11:32:07;;;;;;;9.43;2.13;;;11.00;99.90;;;;;;5125777;28;20046;-54
2023/11/11 11:34:34;;;;;;;8.45;2.30;;;10.90;99.90;;;;;;5126803;28;20185;-54
2023/11/11 11:37:00;;;;;;;7.18;2.10;;;11.00;99.90;;;;;;5125846;28;20091;-54
2023/11/11 11:39:29;;;;;;;10.07;2.75;;;11.50;99.90;;;;;;5125326;28;20023;-54
2023/11/11 11:42:17;;;;;;;7.40;2.00;;;12.70;99.90;;;;;;5125282;28;20036;-54
2023/11/11 11:44:53;;;;;;;8.15;2.45;;;13.20;99.90;;;;;;5126744;28;20138;-54
2023/11/11 11:47:20;;;;;;;6.85;2.42;;;15.00;99.90;;;;;;5110306;28;20024;-55
2023/11/11 11:49:49;;;;;;;4.18;1.70;;;17.10;99.90;;;;;;5126498;28;20023;-54
2023/11/11 11:52:21;;;;;;;4.60;1.13;;;17.10;99.20;;;;;;5126678;28;20026;-54
2023/11/11 11:54:47;;;;;;;2.67;1.20;;;16.40;99.70;;;;;;5125362;28;20100;-55
2023/11/11 11:57:13;;;;;;;9.57;2.00;;;16.00;99.90;;;;;;5125330;28;20285;-55
2023/11/11 11:59:44;;;;;;;6.78;2.42;;;15.90;99.90;;;;;;5126424;28;20056;-55
2023/11/11 12:02:11;;;;;;;7.18;2.47;;;16.20;99.90;;;;;;5126878;28;20088;-55
2023/11/11 12:04:41;;;;;;;12.27;3.10;;;17.10;97.10;;;;;;5126526;28;20038;-54
2023/11/11 12:07:09;;;;;;;12.93;3.90;;;17.60;92.70;;;;;;5126257;28;20055;-55
2023/11/11 12:09:35;;;;;;;11.63;3.22;;;17.10;93.30;;;;;;5126165;28;20294;-55
2023/11/11 12:12:08;;;;;;;5.90;1.90;;;18.10;91.30;;;;;;5125344;28;20171;-55
2023/11/11 12:14:34;;;;;;;6.05;1.70;;;18.90;80.70;;;;;;5126184;28;20031;-54
2023/11/11 12:17:00;;;;;;;4.80;1.85;;;19.20;75.60;;;;;;5108232;28;20016;-53
2023/11/11 12:19:27;;;;;;;5.88;2.08;;;19.80;70.90;;;;;;5125337;28;20190;-55
2023/11/11 12:21:52;;;;;;;6.70;1.58;;;20.30;61.90;;;;;;5126237;28;20080;-55
2023/11/11 12:24:22;;;;;;;6.00;1.48;;;20.00;61.20;;;;;;5125960;28;20273;-56
2023/11/11 12:26:48;;;;;;;7.38;1.60;;;20.00;61.10;;;;;;5124552;28;20046;-55
2023/11/11 12:29:14;;;;;;;7.28;2.00;;;19.80;57.10;;;;;;5125130;28;20035;-55
2023/11/11 12:31:46;;;;;;;7.32;1.42;;;19.00;65.00;;;;;;5125877;28;20073;-56
2023/11/11 12:34:13;;;;;;;4.20;1.30;;;18.80;63.60;;;;;;5126031;28;20028;-57
2023/11/11 12:36:40;;;;;;;5.35;1.38;;;19.40;58.80;;;;;;5124344;28;20030;-55
2023/11/11 12:39:09;;;;;;;4.72;1.40;;;19.20;58.00;;;;;;5108010;28;20023;-55
2023/11/11 12:41:37;;;;;;;5.43;1.40;;;18.60;65.30;;;;;;5125789;28;20143;-55
2023/11/11 12:44:05;;;;;;;5.32;1.35;;;17.20;78.80;;;;;;5125634;28;20073;-57
2023/11/11 12:46:31;;;;;;;7.65;2.47;;;16.10;93.20;;;;;;5125722;28;20035;-57
2023/11/11 12:49:07;;;;;;;5.35;1.20;;;15.20;99.90;;;;;;5124962;28;20273;-56
2023/11/11 12:51:33;;;;;;;5.40;1.60;;;14.60;99.90;;;;;;5125037;28;20085;-56